sensor_id;sensor_type;location;lat;lon;timestamp;pressure;altitude;pressure_sealevel;temperature;humidity
46223;BME280;31943;51.410;7.564;2022-09-11T00:01:05;100281.25;;;17.30;71.16
46223;BME280;31943;51.410;7.564;2022-09-11T00:03:31;100279.53;;;17.28;71.20
46223;BME280;31943;51.410;7.564;2022-09-11T00:06:01;100281.34;;;17.26;71.10
46223;BME280;31943;51.410;7.564;2022-09-11T00:08:27;100287.56;;;17.22;70.95
46223;BME280;31943;51.410;7.564;2022-09-11T00:10:52;100284.97;;;17.18;70.91
46223;BME280;31943;51.410;7.564;2022-09-11T00:13:20;100284.97;;;17.17;71.05
46223;BME280;31943;51.410;7.564;2022-09-11T00:15:50;100287.63;;;17.17;70.79
46223;BME280;31943;51.410;7.564;2022-09-11T00:18:18;100286.75;;;17.16;70.90
46223;BME280;31943;51.410;7.564;2022-09-11T00:20:46;100292.97;;;17.14;70.86
46223;BME280;31943;51.410;7.564;2022-09-11T00:23:12;100295.69;;;17.09;70.65
46223;BME280;31943;51.410;7.564;2022-09-11T00:25:38;100293.94;;;17.07;70.69
46223;BME280;31943;51.410;7.564;2022-09-11T00:28:04;100287.84;;;17.03;70.70
46223;BME280;31943;51.410;7.564;2022-09-11T00:30:30;100288.75;;;17.00;71.04
46223;BME280;31943;51.410;7.564;2022-09-11T00:32:58;100288.78;;;16.99;70.69
46223;BME280;31943;51.410;7.564;2022-09-11T00:35:24;100287.97;;;16.95;70.72
46223;BME280;31943;51.410;7.564;2022-09-11T00:37:50;100281.88;;;16.92;70.54
46223;BME280;31943;51.410;7.564;2022-09-11T00:40:16;100289.84;;;16.89;70.70
46223;BME280;31943;51.410;7.564;2022-09-11T00:42:42;100286.38;;;16.85;70.54
46223;BME280;31943;51.410;7.564;2022-09-11T00:45:19;100296.03;;;16.85;70.38
46223;BME280;31943;51.410;7.564;2022-09-11T00:47:45;100293.44;;;16.82;70.77
46223;BME280;31943;51.410;7.564;2022-09-11T00:50:16;100296.97;;;16.79;70.42
46223;BME280;31943;51.410;7.564;2022-09-11T00:52:50;100299.66;;;16.76;70.01
46223;BME280;31943;51.410;7.564;2022-09-11T00:55:19;100299.72;;;16.71;69.91
46223;BME280;31943;51.410;7.564;2022-09-11T00:57:48;100296.28;;;16.66;70.49
46223;BME280;31943;51.410;7.564;2022-09-11T01:00:16;100304.19;;;16.66;70.68
46223;BME280;31943;51.410;7.564;2022-09-11T01:02:45;100295.44;;;16.64;70.65
46223;BME280;31943;51.410;7.564;2022-09-11T01:05:14;100302.44;;;16.64;70.59
46223;BME280;31943;51.410;7.564;2022-09-11T01:07:40;100306.00;;;16.63;70.60
46223;BME280;31943;51.410;7.564;2022-09-11T01:10:07;100306.88;;;16.60;70.47
46223;BME280;31943;51.410;7.564;2022-09-11T01:12:38;100311.28;;;16.61;70.61
46223;BME280;31943;51.410;7.564;2022-09-11T01:15:13;100312.16;;;16.60;70.66
46223;BME280;31943;51.410;7.564;2022-09-11T01:17:49;100308.69;;;16.58;70.70
46223;BME280;31943;51.410;7.564;2022-09-11T01:20:35;100320.09;;;16.58;70.95
46223;BME280;31943;51.410;7.564;2022-09-11T01:23:25;100320.13;;;16.57;70.58
46223;BME280;31943;51.410;7.564;2022-09-11T01:26:11;100316.66;;;16.53;70.39
46223;BME280;31943;51.410;7.564;2022-09-11T01:28:47;100333.38;;;16.51;70.62
46223;BME280;31943;51.410;7.564;2022-09-11T01:31:19;100329.91;;;16.49;70.69
46223;BME280;31943;51.410;7.564;2022-09-11T01:33:49;100330.78;;;16.46;70.48
46223;BME280;31943;51.410;7.564;2022-09-11T01:36:20;100339.59;;;16.45;70.56
46223;BME280;31943;51.410;7.564;2022-09-11T01:38:49;100345.78;;;16.43;70.51
46223;BME280;31943;51.410;7.564;2022-09-11T01:41:20;100344.03;;;16.41;70.47
46223;BME280;31943;51.410;7.564;2022-09-11T01:43:52;100344.03;;;16.41;70.57
46223;BME280;31943;51.410;7.564;2022-09-11T01:46:22;100343.16;;;16.41;70.50
46223;BME280;31943;51.410;7.564;2022-09-11T01:48:52;100347.53;;;16.40;71.05
46223;BME280;31943;51.410;7.564;2022-09-11T01:51:23;100350.16;;;16.40;70.95
46223;BME280;31943;51.410;7.564;2022-09-11T01:53:50;100351.94;;;16.38;70.72
46223;BME280;31943;51.410;7.564;2022-09-11T01:56:21;100354.63;;;16.37;70.61
46223;BME280;31943;51.410;7.564;2022-09-11T01:58:54;100359.88;;;16.37;71.09
46223;BME280;31943;51.410;7.564;2022-09-11T02:01:24;100353.78;;;16.35;71.45
46223;BME280;31943;51.410;7.564;2022-09-11T02:03:55;100351.09;;;16.36;71.32
46223;BME280;31943;51.410;7.564;2022-09-11T02:06:26;100355.50;;;16.37;71.24
46223;BME280;31943;51.410;7.564;2022-09-11T02:08:56;100357.25;;;16.37;71.17
46223;BME280;31943;51.410;7.564;2022-09-11T02:11:25;100358.97;;;16.38;71.17
46223;BME280;31943;51.410;7.564;2022-09-11T02:13:57;100359.88;;;16.37;71.34
46223;BME280;31943;51.410;7.564;2022-09-11T02:16:33;100360.75;;;16.37;71.10
46223;BME280;31943;51.410;7.564;2022-09-11T02:19:05;100368.66;;;16.39;71.24
46223;BME280;31943;51.410;7.564;2022-09-11T02:21:31;100369.50;;;16.41;71.34
46223;BME280;31943;51.410;7.564;2022-09-11T02:23:58;100360.69;;;16.44;71.23
46223;BME280;31943;51.410;7.564;2022-09-11T02:26:26;100365.03;;;16.46;71.46
46223;BME280;31943;51.410;7.564;2022-09-11T02:28:54;100364.16;;;16.47;71.54
46223;BME280;31943;51.410;7.564;2022-09-11T02:31:21;100365.88;;;16.48;71.48
46223;BME280;31943;51.410;7.564;2022-09-11T02:33:47;100369.41;;;16.47;71.16
46223;BME280;31943;51.410;7.564;2022-09-11T02:36:32;100368.50;;;16.50;71.04
46223;BME280;31943;51.410;7.564;2022-09-11T02:39:11;100368.50;;;16.51;71.27
46223;BME280;31943;51.410;7.564;2022-09-11T02:41:47;100371.97;;;16.52;71.51
46223;BME280;31943;51.410;7.564;2022-09-11T02:44:25;100375.47;;;16.52;71.79
46223;BME280;31943;51.410;7.564;2022-09-11T02:47:06;100373.75;;;16.53;71.50
46223;BME280;31943;51.410;7.564;2022-09-11T02:49:41;100372.84;;;16.52;71.57
46223;BME280;31943;51.410;7.564;2022-09-11T02:52:18;100378.94;;;16.56;71.65
46223;BME280;31943;51.410;7.564;2022-09-11T02:54:51;100380.72;;;16.57;71.75
46223;BME280;31943;51.410;7.564;2022-09-11T02:57:28;100385.06;;;16.58;72.17
46223;BME280;31943;51.410;7.564;2022-09-11T02:59:57;100385.97;;;16.58;72.05
46223;BME280;31943;51.410;7.564;2022-09-11T03:02:24;100381.56;;;16.59;71.78
46223;BME280;31943;51.410;7.564;2022-09-11T03:04:49;100389.41;;;16.62;71.88
46223;BME280;31943;51.410;7.564;2022-09-11T03:07:15;100389.41;;;16.62;72.19
46223;BME280;31943;51.410;7.564;2022-09-11T03:09:40;100395.56;;;16.64;71.88
46223;BME280;31943;51.410;7.564;2022-09-11T03:12:06;100396.41;;;16.66;72.28
46223;BME280;31943;51.410;7.564;2022-09-11T03:14:32;100396.38;;;16.68;72.07
46223;BME280;31943;51.410;7.564;2022-09-11T03:16:59;100390.22;;;16.70;72.38
46223;BME280;31943;51.410;7.564;2022-09-11T03:19:25;100392.84;;;16.70;72.15
46223;BME280;31943;51.410;7.564;2022-09-11T03:21:50;100388.44;;;16.71;72.28
46223;BME280;31943;51.410;7.564;2022-09-11T03:24:16;100385.78;;;16.72;72.02
46223;BME280;31943;51.410;7.564;2022-09-11T03:26:42;100383.09;;;16.74;72.25
46223;BME280;31943;51.410;7.564;2022-09-11T03:29:07;100382.22;;;16.75;72.30
46223;BME280;31943;51.410;7.564;2022-09-11T03:31:33;100391.00;;;16.77;72.36
46223;BME280;31943;51.410;7.564;2022-09-11T03:34:00;100390.97;;;16.80;72.23
46223;BME280;31943;51.410;7.564;2022-09-11T03:36:26;100395.31;;;16.81;72.21
46223;BME280;31943;51.410;7.564;2022-09-11T03:38:51;100403.25;;;16.83;72.54
46223;BME280;31943;51.410;7.564;2022-09-11T03:41:17;100390.97;;;16.78;72.78
46223;BME280;31943;51.410;7.564;2022-09-11T03:43:43;100406.81;;;16.77;73.02
46223;BME280;31943;51.410;7.564;2022-09-11T03:46:08;100403.28;;;16.78;73.25
46223;BME280;31943;51.410;7.564;2022-09-11T03:48:34;100406.78;;;16.78;73.22
46223;BME280;31943;51.410;7.564;2022-09-11T03:51:02;100399.72;;;16.80;72.92
46223;BME280;31943;51.410;7.564;2022-09-11T03:53:28;100401.50;;;16.82;73.19
46223;BME280;31943;51.410;7.564;2022-09-11T03:55:54;100406.75;;;16.82;73.18
46223;BME280;31943;51.410;7.564;2022-09-11T03:58:20;100405.88;;;16.84;73.30
46223;BME280;31943;51.410;7.564;2022-09-11T04:00:46;100411.16;;;16.84;72.87
46223;BME280;31943;51.410;7.564;2022-09-11T04:03:12;100411.06;;;16.89;73.01
46223;BME280;31943;51.410;7.564;2022-09-11T04:05:38;100417.22;;;16.89;72.99
46223;BME280;31943;51.410;7.564;2022-09-11T04:08:06;100418.97;;;16.89;73.03
46223;BME280;31943;51.410;7.564;2022-09-11T04:10:32;100417.25;;;16.86;73.32
46223;BME280;31943;51.410;7.564;2022-09-11T04:12:58;100419.94;;;16.83;73.56
46223;BME280;31943;51.410;7.564;2022-09-11T04:15:23;100422.56;;;16.85;73.34
46223;BME280;31943;51.410;7.564;2022-09-11T04:17:49;100422.53;;;16.86;73.44
46223;BME280;31943;51.410;7.564;2022-09-11T04:20:15;100424.31;;;16.84;73.50
46223;BME280;31943;51.410;7.564;2022-09-11T04:22:40;100426.09;;;16.82;73.73
46223;BME280;31943;51.410;7.564;2022-09-11T04:25:08;100427.84;;;16.82;73.44
46223;BME280;31943;51.410;7.564;2022-09-11T04:27:34;100423.44;;;16.80;73.96
46223;BME280;31943;51.410;7.564;2022-09-11T04:29:59;100427.84;;;16.82;73.80
46223;BME280;31943;51.410;7.564;2022-09-11T04:32:25;100434.84;;;16.81;73.78
46223;BME280;31943;51.410;7.564;2022-09-11T04:34:50;100441.91;;;16.80;73.92
46223;BME280;31943;51.410;7.564;2022-09-11T04:37:16;100442.75;;;16.81;73.68
46223;BME280;31943;51.410;7.564;2022-09-11T04:39:42;100441.03;;;16.82;73.85
46223;BME280;31943;51.410;7.564;2022-09-11T04:42:09;100441.88;;;16.84;73.69
46223;BME280;31943;51.410;7.564;2022-09-11T04:44:35;100442.78;;;16.84;73.85
46223;BME280;31943;51.410;7.564;2022-09-11T04:47:01;100442.72;;;16.87;73.68
46223;BME280;31943;51.410;7.564;2022-09-11T04:49:26;100450.59;;;16.89;73.84
46223;BME280;31943;51.410;7.564;2022-09-11T04:51:52;100447.97;;;16.87;73.71
46223;BME280;31943;51.410;7.564;2022-09-11T04:54:18;100450.59;;;16.89;73.58
46223;BME280;31943;51.410;7.564;2022-09-11T04:56:44;100454.09;;;16.91;73.75
46223;BME280;31943;51.410;7.564;2022-09-11T04:59:13;100447.03;;;16.93;73.37
46223;BME280;31943;51.410;7.564;2022-09-11T05:01:39;100451.47;;;16.89;73.69
46223;BME280;31943;51.410;7.564;2022-09-11T05:04:05;100447.97;;;16.89;73.52
46223;BME280;31943;51.410;7.564;2022-09-11T05:06:31;100450.59;;;16.90;73.78
46223;BME280;31943;51.410;7.564;2022-09-11T05:09:00;100447.03;;;16.94;73.98
46223;BME280;31943;51.410;7.564;2022-09-11T05:11:26;100454.00;;;16.97;73.63
46223;BME280;31943;51.410;7.564;2022-09-11T05:13:52;100450.50;;;16.98;73.22
46223;BME280;31943;51.410;7.564;2022-09-11T05:16:19;100454.91;;;16.97;73.50
46223;BME280;31943;51.410;7.564;2022-09-11T05:18:49;100454.00;;;16.97;73.49
46223;BME280;31943;51.410;7.564;2022-09-11T05:21:15;100455.78;;;16.96;73.59
46223;BME280;31943;51.410;7.564;2022-09-11T05:23:41;100461.03;;;16.98;73.85
46223;BME280;31943;51.410;7.564;2022-09-11T05:26:13;100461.88;;;17.02;73.66
46223;BME280;31943;51.410;7.564;2022-09-11T05:28:39;100466.25;;;17.01;73.48
46223;BME280;31943;51.410;7.564;2022-09-11T05:31:10;100464.53;;;17.00;73.75
46223;BME280;31943;51.410;7.564;2022-09-11T05:33:37;100468.09;;;16.96;74.04
46223;BME280;31943;51.410;7.564;2022-09-11T05:36:04;100467.25;;;16.94;73.96
46223;BME280;31943;51.410;7.564;2022-09-11T05:38:30;100471.59;;;16.98;74.27
46223;BME280;31943;51.410;7.564;2022-09-11T05:40:56;100473.28;;;17.02;73.71
46223;BME280;31943;51.410;7.564;2022-09-11T05:43:22;100470.59;;;17.05;73.68
46223;BME280;31943;51.410;7.564;2022-09-11T05:45:53;100473.22;;;17.08;73.56
46223;BME280;31943;51.410;7.564;2022-09-11T05:48:19;100479.31;;;17.12;73.47
46223;BME280;31943;51.410;7.564;2022-09-11T05:50:52;100484.53;;;17.16;73.08
46223;BME280;31943;51.410;7.564;2022-09-11T05:53:18;100488.03;;;17.17;73.10
46223;BME280;31943;51.410;7.564;2022-09-11T05:55:44;100491.50;;;17.20;72.90
46223;BME280;31943;51.410;7.564;2022-09-11T05:58:09;100498.50;;;17.23;72.98
46223;BME280;31943;51.410;7.564;2022-09-11T06:00:35;100498.50;;;17.23;72.96
46223;BME280;31943;51.410;7.564;2022-09-11T06:03:01;100500.25;;;17.24;72.87
46223;BME280;31943;51.410;7.564;2022-09-11T06:05:26;100502.03;;;17.20;73.15
46223;BME280;31943;51.410;7.564;2022-09-11T06:07:53;100506.44;;;17.20;73.42
46223;BME280;31943;51.410;7.564;2022-09-11T06:10:19;100517.84;;;17.22;73.43
46223;BME280;31943;51.410;7.564;2022-09-11T06:12:44;100517.84;;;17.22;73.22
46223;BME280;31943;51.410;7.564;2022-09-11T06:15:11;100515.19;;;17.25;73.01
46223;BME280;31943;51.410;7.564;2022-09-11T06:17:37;100523.06;;;17.27;72.94
46223;BME280;31943;51.410;7.564;2022-09-11T06:20:03;100525.66;;;17.31;72.66
46223;BME280;31943;51.410;7.564;2022-09-11T06:22:29;100524.75;;;17.32;72.39
46223;BME280;31943;51.410;7.564;2022-09-11T06:24:55;100527.38;;;17.34;72.61
46223;BME280;31943;51.410;7.564;2022-09-11T06:27:21;100521.22;;;17.35;72.79
46223;BME280;31943;51.410;7.564;2022-09-11T06:29:47;100528.19;;;17.37;72.89
46223;BME280;31943;51.410;7.564;2022-09-11T06:32:12;100523.75;;;17.41;72.48
46223;BME280;31943;51.410;7.564;2022-09-11T06:34:38;100533.38;;;17.44;72.84
46223;BME280;31943;51.410;7.564;2022-09-11T06:37:04;100535.25;;;17.37;72.90
46223;BME280;31943;51.410;7.564;2022-09-11T06:39:30;100536.13;;;17.36;72.91
46223;BME280;31943;51.410;7.564;2022-09-11T06:41:57;100533.50;;;17.36;73.20
46223;BME280;31943;51.410;7.564;2022-09-11T06:44:22;100533.47;;;17.37;73.05
46223;BME280;31943;51.410;7.564;2022-09-11T06:46:48;100536.13;;;17.37;73.40
46223;BME280;31943;51.410;7.564;2022-09-11T06:49:14;100535.16;;;17.43;73.04
46223;BME280;31943;51.410;7.564;2022-09-11T06:51:40;100536.88;;;17.46;73.16
46223;BME280;31943;51.410;7.564;2022-09-11T06:54:06;100543.00;;;17.49;72.74
46223;BME280;31943;51.410;7.564;2022-09-11T06:56:31;100543.88;;;17.48;72.39
46223;BME280;31943;51.410;7.564;2022-09-11T06:58:59;100548.34;;;17.45;72.58
46223;BME280;31943;51.410;7.564;2022-09-11T07:01:25;100551.88;;;17.42;72.52
46223;BME280;31943;51.410;7.564;2022-09-11T07:03:52;100550.13;;;17.43;72.59
46223;BME280;31943;51.410;7.564;2022-09-11T07:06:19;100551.00;;;17.43;72.29
46223;BME280;31943;51.410;7.564;2022-09-11T07:08:48;100548.38;;;17.40;72.24
46223;BME280;31943;51.410;7.564;2022-09-11T07:11:14;100549.28;;;17.39;72.12
46223;BME280;31943;51.410;7.564;2022-09-11T07:13:40;100547.53;;;17.38;72.22
46223;BME280;31943;51.410;7.564;2022-09-11T07:16:08;100546.69;;;17.36;72.32
46223;BME280;31943;51.410;7.564;2022-09-11T07:18:35;100546.69;;;17.34;72.39
46223;BME280;31943;51.410;7.564;2022-09-11T07:21:04;100549.31;;;17.37;72.36
46223;BME280;31943;51.410;7.564;2022-09-11T07:23:30;100546.66;;;17.37;72.19
46223;BME280;31943;51.410;7.564;2022-09-11T07:25:55;100549.22;;;17.42;72.46
46223;BME280;31943;51.410;7.564;2022-09-11T07:28:21;100545.66;;;17.46;72.32
46223;BME280;31943;51.410;7.564;2022-09-11T07:30:46;100552.63;;;17.52;72.23
46223;BME280;31943;51.410;7.564;2022-09-11T07:33:13;100555.22;;;17.56;72.33
46223;BME280;31943;51.410;7.564;2022-09-11T07:35:39;100557.88;;;17.55;72.19
46223;BME280;31943;51.410;7.564;2022-09-11T07:38:05;100556.09;;;17.54;72.19
46223;BME280;31943;51.410;7.564;2022-09-11T07:40:30;100560.56;;;17.50;72.35
46223;BME280;31943;51.410;7.564;2022-09-11T07:42:56;100566.72;;;17.52;72.13
46223;BME280;31943;51.410;7.564;2022-09-11T07:45:22;100571.06;;;17.55;72.18
46223;BME280;31943;51.410;7.564;2022-09-11T07:47:47;100570.25;;;17.48;71.96
46223;BME280;31943;51.410;7.564;2022-09-11T07:50:14;100580.84;;;17.47;72.01
46223;BME280;31943;51.410;7.564;2022-09-11T07:52:40;100566.75;;;17.46;72.11
46223;BME280;31943;51.410;7.564;2022-09-11T07:55:07;100570.25;;;17.50;71.92
46223;BME280;31943;51.410;7.564;2022-09-11T07:57:33;100574.47;;;17.62;71.83
46223;BME280;31943;51.410;7.564;2022-09-11T07:59:58;100576.91;;;17.75;71.67
46223;BME280;31943;51.410;7.564;2022-09-11T08:02:24;100582.06;;;17.88;71.35
46223;BME280;31943;51.410;7.564;2022-09-11T08:04:50;100580.22;;;17.93;71.09
46223;BME280;31943;51.410;7.564;2022-09-11T08:07:17;100578.41;;;17.98;70.78
46223;BME280;31943;51.410;7.564;2022-09-11T08:09:43;100578.34;;;18.01;70.78
46223;BME280;31943;51.410;7.564;2022-09-11T08:12:08;100590.66;;;18.02;70.64
46223;BME280;31943;51.410;7.564;2022-09-11T08:14:35;100583.63;;;18.01;70.07
46223;BME280;31943;51.410;7.564;2022-09-11T08:17:00;100587.94;;;18.05;69.75
46223;BME280;31943;51.410;7.564;2022-09-11T08:19:26;100593.09;;;18.14;69.66
46223;BME280;31943;51.410;7.564;2022-09-11T08:21:52;100595.63;;;18.21;69.69
46223;BME280;31943;51.410;7.564;2022-09-11T08:24:19;100601.75;;;18.23;69.35
46223;BME280;31943;51.410;7.564;2022-09-11T08:26:45;100598.25;;;18.22;69.87
46223;BME280;31943;51.410;7.564;2022-09-11T08:29:10;100599.09;;;18.26;69.72
46223;BME280;31943;51.410;7.564;2022-09-11T08:31:36;100607.06;;;18.23;69.94
46223;BME280;31943;51.410;7.564;2022-09-11T08:34:02;100607.06;;;18.23;69.75
46223;BME280;31943;51.410;7.564;2022-09-11T08:36:28;100609.63;;;18.27;69.92
46223;BME280;31943;51.410;7.564;2022-09-11T08:38:53;100606.88;;;18.35;69.97
46223;BME280;31943;51.410;7.564;2022-09-11T08:41:27;100610.25;;;18.43;70.01
46223;BME280;31943;51.410;7.564;2022-09-11T08:43:56;100613.53;;;18.57;69.90
46223;BME280;31943;51.410;7.564;2022-09-11T08:46:25;100619.50;;;18.69;69.64
46223;BME280;31943;51.410;7.564;2022-09-11T08:48:58;100612.34;;;18.75;69.40
46223;BME280;31943;51.410;7.564;2022-09-11T08:51:27;100610.59;;;18.74;69.27
46223;BME280;31943;51.410;7.564;2022-09-11T08:53:53;100622.06;;;18.73;69.39
46223;BME280;31943;51.410;7.564;2022-09-11T08:56:22;100624.78;;;18.70;68.99
46223;BME280;31943;51.410;7.564;2022-09-11T08:59:08;100628.31;;;18.68;68.68
46223;BME280;31943;51.410;7.564;2022-09-11T09:01:44;100620.22;;;18.78;68.56
46223;BME280;31943;51.410;7.564;2022-09-11T09:04:22;100619.97;;;18.95;68.02
46223;BME280;31943;51.410;7.564;2022-09-11T09:06:58;100632.00;;;19.10;67.77
46223;BME280;31943;51.410;7.564;2022-09-11T09:09:35;100634.22;;;19.33;67.08
46223;BME280;31943;51.410;7.564;2022-09-11T09:12:11;100628.59;;;19.50;67.05
46223;BME280;31943;51.410;7.564;2022-09-11T09:15:04;100635.59;;;19.51;66.84
46223;BME280;31943;51.410;7.564;2022-09-11T09:17:35;100638.41;;;19.44;67.16
46223;BME280;31943;51.410;7.564;2022-09-11T09:20:08;100635.16;;;19.31;66.49
46223;BME280;31943;51.410;7.564;2022-09-11T09:22:39;100640.88;;;19.08;66.89
46223;BME280;31943;51.410;7.564;2022-09-11T09:25:11;100649.09;;;18.91;65.89
46223;BME280;31943;51.410;7.564;2022-09-11T09:27:39;100645.84;;;18.73;66.90
46223;BME280;31943;51.410;7.564;2022-09-11T09:30:15;100645.94;;;18.69;67.19
46223;BME280;31943;51.410;7.564;2022-09-11T09:32:44;100644.06;;;18.75;67.82
46223;BME280;31943;51.410;7.564;2022-09-11T09:35:14;100651.94;;;18.78;67.98
46223;BME280;31943;51.410;7.564;2022-09-11T09:37:40;100655.53;;;18.74;67.53
46223;BME280;31943;51.410;7.564;2022-09-11T09:40:08;100652.13;;;18.68;68.14
46223;BME280;31943;51.410;7.564;2022-09-11T09:42:56;100653.91;;;18.66;68.01
46223;BME280;31943;51.410;7.564;2022-09-11T09:45:38;100654.13;;;18.53;67.48
46223;BME280;31943;51.410;7.564;2022-09-11T09:48:08;100655.09;;;18.46;67.67
46223;BME280;31943;51.410;7.564;2022-09-11T09:50:39;100652.25;;;18.60;67.92
46223;BME280;31943;51.410;7.564;2022-09-11T09:53:13;100652.22;;;18.62;68.26
46223;BME280;31943;51.410;7.564;2022-09-11T09:55:41;100658.41;;;18.61;68.58
46223;BME280;31943;51.410;7.564;2022-09-11T09:58:08;100655.66;;;18.67;68.68
46223;BME280;31943;51.410;7.564;2022-09-11T10:00:39;100656.22;;;18.87;68.12
46223;BME280;31943;51.410;7.564;2022-09-11T10:03:18;100658.28;;;19.20;67.51
46223;BME280;31943;51.410;7.564;2022-09-11T10:05:44;100658.81;;;19.39;66.56
46223;BME280;31943;51.410;7.564;2022-09-11T10:08:24;100652.28;;;19.55;65.67
46223;BME280;31943;51.410;7.564;2022-09-11T10:10:53;100657.91;;;19.40;66.40
46223;BME280;31943;51.410;7.564;2022-09-11T10:13:20;100655.50;;;19.71;65.60
46223;BME280;31943;51.410;7.564;2022-09-11T10:15:49;100654.69;;;19.67;64.91
46223;BME280;31943;51.410;7.564;2022-09-11T10:18:38;100653.00;;;19.63;64.72
46223;BME280;31943;51.410;7.564;2022-09-11T10:21:28;100653.53;;;19.37;65.17
46223;BME280;31943;51.410;7.564;2022-09-11T10:23:56;100655.50;;;19.27;64.96
46223;BME280;31943;51.410;7.564;2022-09-11T10:26:25;100655.78;;;19.12;64.90
46223;BME280;31943;51.410;7.564;2022-09-11T10:28:53;100644.06;;;19.25;64.96
46223;BME280;31943;51.410;7.564;2022-09-11T10:31:24;100647.72;;;19.62;62.64
46223;BME280;31943;51.410;7.564;2022-09-11T10:33:51;100640.56;;;19.67;62.10
46223;BME280;31943;51.410;7.564;2022-09-11T10:36:22;100649.66;;;19.55;61.94
46223;BME280;31943;51.410;7.564;2022-09-11T10:38:48;100649.13;;;19.38;62.93
46223;BME280;31943;51.410;7.564;2022-09-11T10:41:15;100644.91;;;19.29;63.87
46223;BME280;31943;51.410;7.564;2022-09-11T10:43:46;100640.72;;;19.15;65.01
46223;BME280;31943;51.410;7.564;2022-09-11T10:46:34;100642.41;;;19.21;64.20
46223;BME280;31943;51.410;7.564;2022-09-11T10:49:13;100640.56;;;19.67;63.36
46223;BME280;31943;51.410;7.564;2022-09-11T10:51:41;100644.69;;;20.21;61.93
46223;BME280;31943;51.410;7.564;2022-09-11T10:54:20;100635.84;;;20.59;59.54
46223;BME280;31943;51.410;7.564;2022-09-11T10:57:02;100643.84;;;20.92;59.88
46223;BME280;31943;51.410;7.564;2022-09-11T10:59:38;100657.44;;;20.80;59.43
46223;BME280;31943;51.410;7.564;2022-09-11T11:02:16;100652.78;;;20.14;61.80
46223;BME280;31943;51.410;7.564;2022-09-11T11:04:44;100653.72;;;19.73;62.60
46223;BME280;31943;51.410;7.564;2022-09-11T11:07:21;100657.06;;;19.38;63.57
46223;BME280;31943;51.410;7.564;2022-09-11T11:10:00;100656.72;;;19.09;64.78
46223;BME280;31943;51.410;7.564;2022-09-11T11:12:40;100661.47;;;18.90;65.69
46223;BME280;31943;51.410;7.564;2022-09-11T11:15:24;100663.41;;;18.77;66.16
46223;BME280;31943;51.410;7.564;2022-09-11T11:18:09;100653.84;;;18.72;66.78
46223;BME280;31943;51.410;7.564;2022-09-11T11:20:46;100659.97;;;18.74;66.75
46223;BME280;31943;51.410;7.564;2022-09-11T11:23:28;100659.91;;;18.77;66.44
46223;BME280;31943;51.410;7.564;2022-09-11T11:26:06;100655.50;;;19.27;65.70
46223;BME280;31943;51.410;7.564;2022-09-11T11:28:48;100660.66;;;19.33;64.32
46223;BME280;31943;51.410;7.564;2022-09-11T11:31:27;100652.72;;;19.33;64.01
46223;BME280;31943;51.410;7.564;2022-09-11T11:34:18;100656.38;;;19.73;63.27
46223;BME280;31943;51.410;7.564;2022-09-11T11:36:49;100646.09;;;19.98;62.83
46223;BME280;31943;51.410;7.564;2022-09-11T11:39:23;100647.00;;;19.97;62.92
46223;BME280;31943;51.410;7.564;2022-09-11T11:41:59;100652.19;;;20.03;62.55
46223;BME280;31943;51.410;7.564;2022-09-11T11:44:30;100650.91;;;19.81;62.89
46223;BME280;31943;51.410;7.564;2022-09-11T11:46:59;100659.78;;;19.78;63.06
46223;BME280;31943;51.410;7.564;2022-09-11T11:49:49;100655.91;;;19.93;62.32
46223;BME280;31943;51.410;7.564;2022-09-11T11:52:28;100657.91;;;20.22;61.92
46223;BME280;31943;51.410;7.564;2022-09-11T11:55:02;100666.13;;;20.11;62.34
46223;BME280;31943;51.410;7.564;2022-09-11T11:57:33;100665.00;;;19.81;61.83
46223;BME280;31943;51.410;7.564;2022-09-11T12:00:03;100666.34;;;19.59;62.25
46223;BME280;31943;51.410;7.564;2022-09-11T12:02:34;100661.22;;;19.51;62.49
46223;BME280;31943;51.410;7.564;2022-09-11T12:05:09;100667.22;;;19.59;62.69
46223;BME280;31943;51.410;7.564;2022-09-11T12:07:38;100673.25;;;19.66;62.57
46223;BME280;31943;51.410;7.564;2022-09-11T12:10:06;100676.03;;;19.58;62.77
46223;BME280;31943;51.410;7.564;2022-09-11T12:12:34;100678.88;;;19.50;62.88
46223;BME280;31943;51.410;7.564;2022-09-11T12:15:04;100672.81;;;19.44;62.94
46223;BME280;31943;51.410;7.564;2022-09-11T12:17:32;100674.34;;;19.54;63.11
46223;BME280;31943;51.410;7.564;2022-09-11T12:20:32;100677.63;;;19.68;62.65
46223;BME280;31943;51.410;7.564;2022-09-11T12:22:58;100685.72;;;19.61;62.41
46223;BME280;31943;51.410;7.564;2022-09-11T12:25:49;100680.59;;;19.51;63.06
46223;BME280;31943;51.410;7.564;2022-09-11T12:28:22;100684.50;;;19.79;61.63
46223;BME280;31943;51.410;7.564;2022-09-11T12:30:59;100681.13;;;20.11;61.40
46223;BME280;31943;51.410;7.564;2022-09-11T12:33:51;100678.75;;;19.99;61.42
46223;BME280;31943;51.410;7.564;2022-09-11T12:36:21;100686.16;;;19.83;61.81
46223;BME280;31943;51.410;7.564;2022-09-11T12:38:49;100680.16;;;19.74;62.24
46223;BME280;31943;51.410;7.564;2022-09-11T12:41:22;100681.72;;;19.83;61.68
46223;BME280;31943;51.410;7.564;2022-09-11T12:43:49;100682.78;;;19.76;61.71
46223;BME280;31943;51.410;7.564;2022-09-11T12:49:16;100685.03;;;19.51;61.41
46223;BME280;31943;51.410;7.564;2022-09-11T12:51:51;100675.38;;;19.48;61.78
46223;BME280;31943;51.410;7.564;2022-09-11T12:54:21;100675.31;;;19.51;61.78
46223;BME280;31943;51.410;7.564;2022-09-11T12:56:51;100684.84;;;19.60;61.27
46223;BME280;31943;51.410;7.564;2022-09-11T12:59:25;100671.63;;;19.59;61.20
46223;BME280;31943;51.410;7.564;2022-09-11T13:01:53;100675.19;;;19.56;61.31
46223;BME280;31943;51.410;7.564;2022-09-11T13:04:21;100673.88;;;19.80;60.71
46223;BME280;31943;51.410;7.564;2022-09-11T13:06:54;100670.94;;;19.94;59.89